Terminal Aerodrome Forecast
Issued by NWS Denver/Boulder, CO

Home | Current Version | Previous Version | Text Only | Print | Product List | Glossary On
Versions: 1 2 3 4 5 6 7 8 9 10 11 12 13 14 15 16 17 18 19 20 21 22 23 24 25 26 27 28 29 30 31 32 33 34 35 36 37 38 39 40 41 42 43 44 45 46 47 48 49 50
000
FTUS45 KBOU 072341
TAFDEN
TAF
KDEN 072341Z 0800/0906 12009KT P6SM FEW070 SCT140
     FM080200 16008KT P6SM FEW040 SCT120 SCT200
      TEMPO 0802/0806 FEW020 SCT050 BKN120
     FM080600 18010KT P6SM FEW070 SCT220
     FM081500 21008KT P6SM SCT220
     FM081900 02006KT P6SM FEW080 SCT220
     FM090100 21008KT P6SM FEW120 SCT220=

USA.gov is the U.S. government's official web portal to all federal, state and local government web resources and services.